createdAt,value
2019-05-09T00:01:24.335Z,1.90
2019-05-09T00:03:55.699Z,2.63
2019-05-09T00:06:25.663Z,1.43
2019-05-09T00:08:55.487Z,2.00
2019-05-09T00:11:25.470Z,1.90
2019-05-09T00:13:55.292Z,2.33
2019-05-09T00:16:26.179Z,2.00
2019-05-09T00:18:56.291Z,2.30
2019-05-09T00:21:28.028Z,2.20
2019-05-09T00:23:57.852Z,2.20
2019-05-09T00:26:27.807Z,1.80
2019-05-09T00:29:03.646Z,1.73
2019-05-09T00:31:43.729Z,1.60
2019-05-09T00:34:17.787Z,1.50
2019-05-09T00:36:47.475Z,1.07
2019-05-09T00:39:17.231Z,1.27
2019-05-09T00:41:47.182Z,1.17
2019-05-09T00:44:33.884Z,2.03
2019-05-09T00:47:23.864Z,1.00
2019-05-09T00:49:54.192Z,1.00
2019-05-09T00:52:24.288Z,0.90
2019-05-09T00:54:54.375Z,0.90
2019-05-09T00:57:36.149Z,0.80
2019-05-09T01:00:14.599Z,1.13
2019-05-09T01:02:43.977Z,0.90
2019-05-09T01:05:13.984Z,0.90
2019-05-09T01:07:45.880Z,0.90
2019-05-09T01:10:15.672Z,1.30
2019-05-09T01:12:45.355Z,1.00
2019-05-09T01:15:16.252Z,0.90
2019-05-09T01:17:47.020Z,1.10
2019-05-09T01:20:17.535Z,1.00
2019-05-09T01:22:47.628Z,1.10
2019-05-09T01:25:17.780Z,0.90
2019-05-09T01:27:47.643Z,1.00
2019-05-09T01:30:19.900Z,1.20
2019-05-09T01:32:57.643Z,1.20
2019-05-09T01:35:28.407Z,1.20
2019-05-09T01:38:03.423Z,1.40
2019-05-09T01:40:33.256Z,1.63
2019-05-09T01:43:04.500Z,1.20
2019-05-09T01:45:34.625Z,1.60
2019-05-09T01:48:04.782Z,1.97
2019-05-09T01:50:34.885Z,1.73
2019-05-09T01:53:04.967Z,1.90
2019-05-09T01:55:53.815Z,1.87
2019-05-09T01:58:23.350Z,2.50
2019-05-09T02:00:54.047Z,2.10
2019-05-09T02:03:23.845Z,2.13
2019-05-09T02:05:53.540Z,2.63
2019-05-09T02:08:23.773Z,2.83
2019-05-09T02:10:54.315Z,2.50
2019-05-09T02:13:24.003Z,2.10
2019-05-09T02:16:11.171Z,2.70
2019-05-09T02:18:46.890Z,2.70
2019-05-09T02:21:17.528Z,2.60
2019-05-09T02:23:47.221Z,2.60
2019-05-09T02:26:16.908Z,2.53
2019-05-09T02:28:46.587Z,2.00
2019-05-09T02:31:16.729Z,1.90
2019-05-09T02:33:46.827Z,2.50
2019-05-09T02:36:19.045Z,2.67
2019-05-09T02:38:49.661Z,2.50
2019-05-09T02:41:19.931Z,2.10
2019-05-09T02:43:50.111Z,2.30
2019-05-09T02:46:38.538Z,2.90
2019-05-09T02:49:09.158Z,2.63
2019-05-09T02:51:39.270Z,2.40
2019-05-09T02:54:10.058Z,2.77
2019-05-09T02:56:43.628Z,2.20
2019-05-09T02:59:15.125Z,2.60
2019-05-09T03:01:49.743Z,1.77
2019-05-09T03:04:19.508Z,2.30
2019-05-09T03:06:49.543Z,2.47
2019-05-09T03:09:19.749Z,2.33
2019-05-09T03:11:51.069Z,2.70
2019-05-09T03:14:21.172Z,2.90
2019-05-09T03:16:51.251Z,2.40
2019-05-09T03:19:22.529Z,2.60
2019-05-09T03:21:58.488Z,2.40
2019-05-09T03:24:28.790Z,2.07
2019-05-09T03:27:08.498Z,2.00
2019-05-09T03:29:44.185Z,2.30
2019-05-09T03:32:14.272Z,2.70
2019-05-09T03:34:47.670Z,2.33
2019-05-09T03:37:17.761Z,2.30
2019-05-09T03:39:47.981Z,2.20
2019-05-09T03:42:23.037Z,2.60
2019-05-09T03:44:52.050Z,2.83
2019-05-09T03:47:23.863Z,3.30
2019-05-09T03:50:10.592Z,3.57
2019-05-09T03:52:40.550Z,3.93
2019-05-09T03:55:14.309Z,3.80
2019-05-09T03:57:47.655Z,4.33
2019-05-09T04:00:18.483Z,3.83
2019-05-09T04:02:48.456Z,3.63
2019-05-09T04:05:18.280Z,3.30
2019-05-09T04:07:48.241Z,3.80
2019-05-09T04:10:18.317Z,3.40
2019-05-09T04:12:56.297Z,3.20
2019-05-09T04:15:21.016Z,3.90
2019-05-09T04:17:51.101Z,3.57
2019-05-09T04:20:21.193Z,4.07
2019-05-09T04:22:51.303Z,4.20
2019-05-09T04:25:23.042Z,3.73
2019-05-09T04:27:53.503Z,3.97
2019-05-09T04:30:23.582Z,4.00
2019-05-09T04:32:53.420Z,3.40
2019-05-09T04:35:23.394Z,4.70
2019-05-09T04:37:53.244Z,4.97
2019-05-09T04:40:24.145Z,3.93
2019-05-09T04:43:08.945Z,4.73
2019-05-09T04:45:28.367Z,4.10
2019-05-09T04:47:58.532Z,5.35
2019-05-09T04:50:28.368Z,3.63
2019-05-09T04:52:58.316Z,4.83
2019-05-09T04:55:30.729Z,5.00
2019-05-09T04:58:00.687Z,3.80
2019-05-09T05:00:33.352Z,4.20
2019-05-09T05:03:03.445Z,5.40
2019-05-09T05:05:33.528Z,5.37
2019-05-09T05:08:03.623Z,4.60
2019-05-09T05:10:33.440Z,5.53
2019-05-09T05:13:03.382Z,4.57
2019-05-09T05:15:33.477Z,4.83
2019-05-09T05:18:03.296Z,4.90
2019-05-09T05:20:33.637Z,5.00
2019-05-09T05:23:05.372Z,3.90
2019-05-09T05:25:35.468Z,4.07
2019-05-09T05:28:05.302Z,4.30
2019-05-09T05:30:37.326Z,4.70
2019-05-09T05:33:09.620Z,3.43
2019-05-09T05:35:42.280Z,3.83
2019-05-09T05:38:12.370Z,3.60
2019-05-09T05:40:46.363Z,2.93
2019-05-09T05:43:17.392Z,3.53
2019-05-09T05:45:50.172Z,3.03
2019-05-09T05:48:21.885Z,2.40
2019-05-09T05:50:53.023Z,2.70
2019-05-09T05:53:23.108Z,3.23
2019-05-09T05:55:54.232Z,2.70
2019-05-09T05:58:24.280Z,2.40
2019-05-09T06:00:54.362Z,2.57
2019-05-09T06:03:24.694Z,2.40
2019-05-09T06:05:54.796Z,2.00
2019-05-09T06:08:24.732Z,2.80
2019-05-09T06:10:54.826Z,1.30
2019-05-09T06:13:24.648Z,2.10
2019-05-09T06:15:55.316Z,1.67
2019-05-09T06:18:27.481Z,1.93
2019-05-09T06:20:58.340Z,2.00
2019-05-09T06:23:28.452Z,1.20
2019-05-09T06:25:58.910Z,1.47
2019-05-09T06:28:28.668Z,1.30
2019-05-09T06:30:58.665Z,1.37
2019-05-09T06:33:28.954Z,1.00
2019-05-09T06:35:59.117Z,0.90
2019-05-09T06:38:29.149Z,1.83
2019-05-09T06:40:58.964Z,1.07
2019-05-09T06:43:30.281Z,0.90
2019-05-09T06:46:18.265Z,1.27
2019-05-09T06:48:48.172Z,0.87
2019-05-09T06:51:21.109Z,1.13
2019-05-09T06:53:49.524Z,1.00
2019-05-09T06:56:19.618Z,1.00
2019-05-09T06:58:49.719Z,0.70
2019-05-09T07:01:23.888Z,0.70
2019-05-09T07:03:57.454Z,0.87
2019-05-09T07:06:28.905Z,0.87
2019-05-09T07:09:18.536Z,1.07
2019-05-09T07:11:48.860Z,0.90
2019-05-09T07:14:31.897Z,0.90
2019-05-09T07:17:00.297Z,0.90
2019-05-09T07:19:30.142Z,1.07
2019-05-09T07:22:01.786Z,0.97
2019-05-09T07:24:33.340Z,0.70
2019-05-09T07:27:03.444Z,0.80
2019-05-09T07:29:37.489Z,0.73
2019-05-09T07:32:18.186Z,1.13
2019-05-09T07:34:49.944Z,0.83
2019-05-09T07:37:20.981Z,1.00
2019-05-09T07:39:51.077Z,0.80
2019-05-09T07:42:21.170Z,1.50
2019-05-09T07:44:52.401Z,0.90
2019-05-09T07:47:22.654Z,1.10
2019-05-09T07:49:52.468Z,0.93
2019-05-09T07:52:22.164Z,0.97
2019-05-09T07:54:51.848Z,0.97
2019-05-09T07:57:22.770Z,1.00
2019-05-09T07:59:52.863Z,1.10
2019-05-09T08:02:22.949Z,0.80
2019-05-09T08:04:52.832Z,0.80
2019-05-09T08:07:22.779Z,0.90
2019-05-09T08:09:52.942Z,0.90
2019-05-09T08:12:23.009Z,1.17
2019-05-09T08:15:07.274Z,0.60
2019-05-09T08:17:24.741Z,0.80
2019-05-09T08:19:54.836Z,0.97
2019-05-09T08:22:26.153Z,1.00
2019-05-09T08:24:57.646Z,0.77
2019-05-09T08:27:30.101Z,0.80
2019-05-09T08:29:59.614Z,0.70
2019-05-09T08:32:29.715Z,0.80
2019-05-09T08:34:59.533Z,1.27
2019-05-09T08:37:29.484Z,0.93
2019-05-09T08:40:00.228Z,0.90
2019-05-09T08:42:31.153Z,1.10
2019-05-09T08:45:01.254Z,0.97
2019-05-09T08:47:31.076Z,0.87
2019-05-09T08:50:02.685Z,1.00
2019-05-09T08:52:32.765Z,0.90
2019-05-09T08:55:02.913Z,0.80
2019-05-09T08:57:32.985Z,0.90
2019-05-09T09:00:02.968Z,0.80
2019-05-09T09:02:32.955Z,0.90
2019-05-09T09:05:03.177Z,0.90
2019-05-09T09:07:33.289Z,0.90
2019-05-09T09:10:03.953Z,1.00
2019-05-09T09:12:34.671Z,0.83
2019-05-09T09:15:07.890Z,1.00
2019-05-09T09:17:38.662Z,0.90
2019-05-09T09:20:09.848Z,0.90
2019-05-09T09:22:39.802Z,1.00
2019-05-09T09:25:09.888Z,1.00
2019-05-09T09:27:39.836Z,0.70
2019-05-09T09:30:20.130Z,0.90
2019-05-09T09:32:42.228Z,1.20
2019-05-09T09:35:12.459Z,0.90
2019-05-09T09:37:48.365Z,1.00
2019-05-09T09:40:14.581Z,0.80
2019-05-09T09:42:44.929Z,0.90
2019-05-09T09:45:18.160Z,1.00
2019-05-09T09:47:48.383Z,0.80
2019-05-09T09:50:18.494Z,1.00
2019-05-09T09:52:49.207Z,0.87
2019-05-09T09:55:19.158Z,0.70
2019-05-09T09:57:48.843Z,1.00
2019-05-09T10:00:29.332Z,0.87
2019-05-09T10:02:59.009Z,1.10
2019-05-09T10:05:29.031Z,1.10
2019-05-09T10:07:59.129Z,0.70
2019-05-09T10:10:37.046Z,1.03
2019-05-09T10:13:10.436Z,0.80
2019-05-09T10:15:47.481Z,0.90
2019-05-09T10:18:30.470Z,0.93
2019-05-09T10:21:07.837Z,1.10
2019-05-09T10:23:38.621Z,0.70
2019-05-09T10:26:08.749Z,0.80
2019-05-09T10:28:39.698Z,1.00
2019-05-09T10:31:09.863Z,1.07
2019-05-09T10:33:39.952Z,1.03
2019-05-09T10:36:10.046Z,1.03
2019-05-09T10:38:40.146Z,0.90
2019-05-09T10:41:11.311Z,0.90
2019-05-09T10:44:00.794Z,0.83
2019-05-09T10:46:51.523Z,1.07
2019-05-09T10:49:09.945Z,0.80
2019-05-09T10:51:39.629Z,0.80
2019-05-09T10:54:09.341Z,1.07
2019-05-09T10:56:39.290Z,0.83
2019-05-09T10:59:09.125Z,1.03
2019-05-09T11:01:39.073Z,0.77
2019-05-09T11:04:10.809Z,0.83
2019-05-09T11:06:40.871Z,1.00
2019-05-09T11:09:11.053Z,0.80
2019-05-09T11:11:40.996Z,1.20
2019-05-09T11:14:28.714Z,1.37
2019-05-09T11:16:49.110Z,0.80
2019-05-09T11:19:14.753Z,1.00
2019-05-09T11:21:47.870Z,1.00
2019-05-09T11:24:18.819Z,0.87
2019-05-09T11:26:49.056Z,0.83
2019-05-09T11:29:19.168Z,1.23
2019-05-09T11:31:48.984Z,0.80
2019-05-09T11:34:19.057Z,1.00
2019-05-09T11:36:49.912Z,0.80
2019-05-09T11:39:35.091Z,0.87
2019-05-09T11:41:52.079Z,1.23
2019-05-09T11:44:22.150Z,0.93
2019-05-09T11:46:53.217Z,1.20
2019-05-09T11:49:23.322Z,1.00
2019-05-09T11:51:53.401Z,1.13
2019-05-09T11:54:24.413Z,1.03
2019-05-09T11:56:54.576Z,1.23
2019-05-09T11:59:24.690Z,1.00
2019-05-09T12:01:54.809Z,1.50
2019-05-09T12:04:24.621Z,1.33
2019-05-09T12:06:54.574Z,1.00
2019-05-09T12:09:24.665Z,1.10
2019-05-09T12:11:54.778Z,1.40
2019-05-09T12:14:27.483Z,1.13
2019-05-09T12:16:56.708Z,1.10
2019-05-09T12:19:29.529Z,1.00
2019-05-09T12:21:58.911Z,1.33
2019-05-09T12:24:29.618Z,0.90
2019-05-09T12:27:02.895Z,1.27
2019-05-09T12:29:32.185Z,1.20
2019-05-09T12:32:02.141Z,0.80
2019-05-09T12:34:32.237Z,0.60
2019-05-09T12:37:02.337Z,0.70
2019-05-09T12:39:32.185Z,0.60
2019-05-09T12:42:02.191Z,0.70
2019-05-09T12:44:32.257Z,0.80
2019-05-09T12:47:02.342Z,0.80
2019-05-09T12:49:32.213Z,0.60
2019-05-09T12:52:02.188Z,0.50
2019-05-09T12:54:32.260Z,0.50
2019-05-09T12:57:02.354Z,0.50
2019-05-09T12:59:45.491Z,0.60
2019-05-09T13:02:04.386Z,0.60
2019-05-09T13:04:34.438Z,0.50
2019-05-09T13:07:04.774Z,0.50
2019-05-09T13:09:35.294Z,0.60
2019-05-09T13:12:05.469Z,0.50
2019-05-09T13:14:37.858Z,0.60
2019-05-09T13:17:27.230Z,0.53
2019-05-09T13:19:58.610Z,0.70
2019-05-09T13:22:28.812Z,0.60
2019-05-09T13:25:02.608Z,0.60
2019-05-09T13:27:30.731Z,0.60
2019-05-09T13:30:00.890Z,0.80
2019-05-09T13:32:31.002Z,0.90
2019-05-09T13:35:01.096Z,0.90
2019-05-09T13:37:31.205Z,1.10
2019-05-09T13:40:01.087Z,0.70
2019-05-09T13:42:31.984Z,1.07
2019-05-09T13:45:02.124Z,0.87
2019-05-09T13:47:32.217Z,0.90
2019-05-09T13:50:02.277Z,0.80
2019-05-09T13:52:33.157Z,1.00
2019-05-09T13:55:03.686Z,1.57
2019-05-09T13:57:33.493Z,0.90
2019-05-09T14:00:03.645Z,1.00
2019-05-09T14:02:34.415Z,1.00
2019-05-09T14:05:08.795Z,0.80
2019-05-09T14:07:37.893Z,1.07
2019-05-09T14:10:10.247Z,0.90
2019-05-09T14:12:41.096Z,0.93
2019-05-09T14:15:11.261Z,1.30
2019-05-09T14:17:49.228Z,1.10
2019-05-09T14:20:13.462Z,0.87
2019-05-09T14:22:43.525Z,0.90
2019-05-09T14:25:13.529Z,0.90
2019-05-09T14:27:48.779Z,0.80
2019-05-09T14:30:15.050Z,0.97
2019-05-09T14:32:44.884Z,0.90
2019-05-09T14:35:14.578Z,1.20
2019-05-09T14:37:44.567Z,1.00
2019-05-09T14:40:14.845Z,1.10
2019-05-09T14:42:45.173Z,1.13
2019-05-09T14:45:18.119Z,0.90
2019-05-09T14:47:48.312Z,0.90
2019-05-09T14:50:18.323Z,0.70
2019-05-09T14:52:50.504Z,0.90
2019-05-09T14:55:20.705Z,1.10
2019-05-09T14:57:50.809Z,0.80
2019-05-09T15:00:22.669Z,0.60
2019-05-09T15:02:52.695Z,1.23
2019-05-09T15:05:22.577Z,0.93
2019-05-09T15:07:53.846Z,0.67
2019-05-09T15:10:26.814Z,0.60
2019-05-09T15:12:58.555Z,0.67
2019-05-09T15:15:32.502Z,1.00
2019-05-09T15:18:00.585Z,0.90
2019-05-09T15:20:31.243Z,0.90
2019-05-09T15:23:01.109Z,1.10
2019-05-09T15:25:30.929Z,0.90
2019-05-09T15:28:00.897Z,1.17
2019-05-09T15:30:31.146Z,0.77
2019-05-09T15:33:00.990Z,0.90
2019-05-09T15:35:30.984Z,0.70
2019-05-09T15:38:00.931Z,0.90
2019-05-09T15:40:31.846Z,0.70
2019-05-09T15:43:01.923Z,0.73
2019-05-09T15:45:35.377Z,0.70
2019-05-09T15:48:07.156Z,0.70
2019-05-09T15:50:38.156Z,0.60
2019-05-09T15:53:08.535Z,0.70
2019-05-09T15:55:38.703Z,0.70
2019-05-09T15:58:08.809Z,0.77
2019-05-09T16:00:38.914Z,0.70
2019-05-09T16:03:09.977Z,0.80
2019-05-09T16:05:40.083Z,1.00
2019-05-09T16:08:11.553Z,1.00
2019-05-09T16:10:42.469Z,1.00
2019-05-09T16:13:12.579Z,1.20
2019-05-09T16:15:42.686Z,0.90
2019-05-09T16:18:12.549Z,0.93
2019-05-09T16:20:42.229Z,0.70
2019-05-09T16:23:12.932Z,0.70
2019-05-09T16:25:42.609Z,0.70
2019-05-09T16:28:13.241Z,1.07
2019-05-09T16:30:42.933Z,0.90
2019-05-09T16:33:12.911Z,0.80
2019-05-09T16:35:43.021Z,0.87
2019-05-09T16:38:13.113Z,0.83
2019-05-09T16:40:43.449Z,0.90
2019-05-09T16:43:13.546Z,0.90
2019-05-09T16:45:43.633Z,0.90
2019-05-09T16:48:14.413Z,1.00
2019-05-09T16:50:59.515Z,0.90
2019-05-09T16:53:18.643Z,0.80
2019-05-09T16:55:48.501Z,1.10
2019-05-09T16:58:18.873Z,1.00
2019-05-09T17:00:51.090Z,1.00
2019-05-09T17:03:23.238Z,1.00
2019-05-09T17:05:53.349Z,0.90
2019-05-09T17:08:24.518Z,1.00
2019-05-09T17:10:55.269Z,1.10
2019-05-09T17:13:25.121Z,0.70
2019-05-09T17:15:55.114Z,0.80
2019-05-09T17:18:28.104Z,0.90
2019-05-09T17:21:15.910Z,1.00
2019-05-09T17:23:38.328Z,0.70
2019-05-09T17:26:08.359Z,0.80
2019-05-09T17:28:38.239Z,0.70
2019-05-09T17:31:08.756Z,1.10
2019-05-09T17:33:38.554Z,1.10
2019-05-09T17:36:08.529Z,0.80
2019-05-09T17:38:38.643Z,0.60
2019-05-09T17:41:09.694Z,0.80
2019-05-09T17:43:40.465Z,0.90
2019-05-09T17:46:10.510Z,0.80
2019-05-09T17:48:40.473Z,0.87
2019-05-09T17:51:10.206Z,0.80
2019-05-09T17:53:41.196Z,0.70
2019-05-09T17:56:11.077Z,1.00
2019-05-09T17:58:41.088Z,0.83
2019-05-09T18:01:11.175Z,0.70
2019-05-09T18:03:41.349Z,0.70
2019-05-09T18:06:11.177Z,0.80
2019-05-09T18:08:41.163Z,1.10
2019-05-09T18:11:13.063Z,1.27
2019-05-09T18:13:43.117Z,1.03
2019-05-09T18:16:12.946Z,0.73
2019-05-09T18:18:44.077Z,1.00
2019-05-09T18:21:13.837Z,0.80
2019-05-09T18:23:43.783Z,1.10
2019-05-09T18:26:13.638Z,0.80
2019-05-09T18:28:43.635Z,0.60
2019-05-09T18:31:13.510Z,0.77
2019-05-09T18:33:47.447Z,1.17
2019-05-09T18:36:17.582Z,0.60
2019-05-09T18:38:48.084Z,0.60
2019-05-09T18:41:18.326Z,0.67
2019-05-09T18:43:48.489Z,0.80
2019-05-09T18:46:21.339Z,0.70
2019-05-09T18:48:49.109Z,1.00
2019-05-09T18:51:18.818Z,0.70
2019-05-09T18:53:48.878Z,0.73
2019-05-09T18:56:18.743Z,0.83
2019-05-09T18:58:49.083Z,0.80
2019-05-09T19:01:18.789Z,0.80
2019-05-09T19:03:48.770Z,0.60
2019-05-09T19:06:18.681Z,0.90
2019-05-09T19:08:48.438Z,0.80
2019-05-09T19:11:18.133Z,0.83
2019-05-09T19:13:48.123Z,0.60
2019-05-09T19:16:37.819Z,0.70
2019-05-09T19:19:09.293Z,1.00
2019-05-09T19:22:05.025Z,1.10
2019-05-09T19:24:33.802Z,0.67
2019-05-09T19:27:03.058Z,0.70
2019-05-09T19:29:33.034Z,0.93
2019-05-09T19:32:03.640Z,0.90
2019-05-09T19:34:33.462Z,0.80
2019-05-09T19:37:03.170Z,0.80
2019-05-09T19:39:32.858Z,0.80
2019-05-09T19:42:02.633Z,0.80
2019-05-09T19:44:32.595Z,0.80
2019-05-09T19:47:02.495Z,0.70
2019-05-09T19:49:32.187Z,0.67
2019-05-09T19:52:01.887Z,0.80
2019-05-09T19:54:31.590Z,0.70
2019-05-09T19:57:01.601Z,0.70
2019-05-09T19:59:31.720Z,0.80
2019-05-09T20:02:01.651Z,1.00
2019-05-09T20:04:32.583Z,1.10
2019-05-09T20:07:02.438Z,0.70
2019-05-09T20:09:38.457Z,0.70
2019-05-09T20:12:16.978Z,1.00
2019-05-09T20:14:49.514Z,0.70
2019-05-09T20:17:19.569Z,0.97
2019-05-09T20:19:50.658Z,0.90
2019-05-09T20:22:22.274Z,0.80
2019-05-09T20:24:52.081Z,1.00
2019-05-09T20:27:23.463Z,0.90
2019-05-09T20:29:52.710Z,0.70
2019-05-09T20:32:23.398Z,0.70
2019-05-09T20:34:54.162Z,0.80
2019-05-09T20:37:24.398Z,1.00
2019-05-09T20:39:54.426Z,0.90
2019-05-09T20:42:24.326Z,1.00
2019-05-09T20:44:54.515Z,1.00
2019-05-09T20:47:24.490Z,0.70
2019-05-09T20:49:54.642Z,0.80
2019-05-09T20:52:24.944Z,1.37
2019-05-09T20:54:55.224Z,0.90
2019-05-09T20:57:26.054Z,0.80
2019-05-09T20:59:57.226Z,0.97
2019-05-09T21:02:27.511Z,1.00
2019-05-09T21:04:57.570Z,1.10
2019-05-09T21:07:27.456Z,0.80
2019-05-09T21:09:57.331Z,0.83
2019-05-09T21:12:27.538Z,1.20
2019-05-09T21:14:57.558Z,0.90
2019-05-09T21:17:27.707Z,1.00
2019-05-09T21:19:57.722Z,1.00
2019-05-09T21:22:27.850Z,1.00
2019-05-09T21:24:57.870Z,1.10
2019-05-09T21:27:28.686Z,0.87
2019-05-09T21:29:58.574Z,1.27
2019-05-09T21:32:28.751Z,1.10
2019-05-09T21:34:58.842Z,1.20
2019-05-09T21:37:28.968Z,1.10
2019-05-09T21:39:59.082Z,0.90
2019-05-09T21:42:29.186Z,1.20
2019-05-09T21:44:59.959Z,1.00
2019-05-09T21:47:30.606Z,1.13
2019-05-09T21:50:00.579Z,1.40
2019-05-09T21:52:30.660Z,1.30
2019-05-09T21:55:00.490Z,1.47
2019-05-09T21:57:30.191Z,1.00
2019-05-09T22:00:01.479Z,1.50
2019-05-09T22:02:37.349Z,1.10
2019-05-09T22:05:08.719Z,1.33
2019-05-09T22:07:39.550Z,1.40
2019-05-09T22:10:10.399Z,1.00
2019-05-09T22:12:40.090Z,1.40
2019-05-09T22:15:10.431Z,1.37
2019-05-09T22:17:40.383Z,1.93
2019-05-09T22:20:12.082Z,1.83
2019-05-09T22:22:41.778Z,1.87
2019-05-09T22:25:13.157Z,1.73
2019-05-09T22:27:42.986Z,1.30
2019-05-09T22:30:14.854Z,1.60
2019-05-09T22:32:44.616Z,1.40
2019-05-09T22:35:14.582Z,1.53
2019-05-09T22:37:44.293Z,1.60
2019-05-09T22:40:14.859Z,1.50
2019-05-09T22:42:44.698Z,1.67
2019-05-09T22:45:15.042Z,1.17
2019-05-09T22:47:46.044Z,1.43
2019-05-09T22:50:15.834Z,1.10
2019-05-09T22:52:46.478Z,1.40
2019-05-09T22:55:17.423Z,1.63
2019-05-09T22:57:47.257Z,1.13
2019-05-09T23:00:17.262Z,1.10
2019-05-09T23:02:46.950Z,1.30
2019-05-09T23:05:17.647Z,1.40
2019-05-09T23:07:47.335Z,1.20
2019-05-09T23:10:17.034Z,1.30
2019-05-09T23:12:47.626Z,1.53
2019-05-09T23:15:19.385Z,1.67
2019-05-09T23:17:49.222Z,1.57
2019-05-09T23:20:36.642Z,1.90
2019-05-09T23:23:24.322Z,1.60
2019-05-09T23:25:54.034Z,1.53
2019-05-09T23:28:24.298Z,1.10
2019-05-09T23:30:55.980Z,1.67
2019-05-09T23:33:27.447Z,1.77
2019-05-09T23:35:57.406Z,2.60
2019-05-09T23:38:27.254Z,1.97
2019-05-09T23:40:59.018Z,1.57
2019-05-09T23:43:28.882Z,1.50
2019-05-09T23:45:58.558Z,1.90
2019-05-09T23:48:28.559Z,1.50
2019-05-09T23:50:58.410Z,1.90
2019-05-09T23:53:32.255Z,1.40
2019-05-09T23:56:19.658Z,1.80
2019-05-09T23:59:07.846Z,1.30
